Time;durP1;ratioP1;P1;durP2;ratioP2;P2;SDS_P1;SDS_P2;PMS_P1;PMS_P2;Temp;Humidity;BMP_temperature;BMP_pressure;BME280_temperature;BME280_humidity;BME280_pressure;Samples;Min_cycle;Max_cycle;Signal;HPM_P1;HPM_P2
2022/06/07 00:02:25;;;;;;;10.07;3.90;;;23.40;96.70;;;;;;5023934;28;20053;-84
2022/06/07 00:04:53;;;;;;;7.97;4.00;;;23.40;96.70;;;;;;5011451;28;20139;-83
2022/06/07 00:07:22;;;;;;;8.55;3.65;;;23.30;96.70;;;;;;5027282;28;20052;-83
2022/06/07 00:09:50;;;;;;;10.38;3.97;;;23.20;96.70;;;;;;5028662;28;20037;-84
2022/06/07 00:12:18;;;;;;;7.45;3.90;;;23.20;96.70;;;;;;5030047;28;20514;-84
2022/06/07 00:14:48;;;;;;;6.35;3.70;;;23.30;96.70;;;;;;5011521;28;20049;-83
2022/06/07 00:17:16;;;;;;;9.27;4.05;;;23.40;96.70;;;;;;5006805;28;20041;-84
2022/06/07 00:19:44;;;;;;;8.85;3.75;;;23.50;96.70;;;;;;5012627;28;20053;-84
2022/06/07 00:22:12;;;;;;;7.43;4.28;;;23.50;96.70;;;;;;5031822;28;20033;-84
2022/06/07 00:24:40;;;;;;;10.75;4.22;;;23.20;96.70;;;;;;5027599;28;20056;-84
2022/06/07 00:27:08;;;;;;;9.75;3.50;;;23.20;96.70;;;;;;5028773;28;20041;-84
2022/06/07 00:29:37;;;;;;;8.60;3.70;;;23.20;96.70;;;;;;5024068;28;20064;-84
2022/06/07 00:32:08;;;;;;;9.38;4.35;;;23.10;96.70;;;;;;5028051;28;20041;-84
2022/06/07 00:34:36;;;;;;;4.82;3.30;;;23.00;96.70;;;;;;5027512;28;20136;-85
2022/06/07 00:37:04;;;;;;;7.38;3.92;;;23.00;96.70;;;;;;5009383;28;20515;-84
2022/06/07 00:39:32;;;;;;;9.27;3.30;;;23.00;96.70;;;;;;5013036;28;20042;-84
2022/06/07 00:42:00;;;;;;;11.00;4.15;;;23.00;96.70;;;;;;5025223;28;20057;-83
2022/06/07 00:44:37;;;;;;;8.23;3.35;;;23.00;96.70;;;;;;5008167;28;20766;-84
2022/06/07 00:47:11;;;;;;;7.63;3.28;;;22.80;96.70;;;;;;5008965;28;20052;-84
2022/06/07 00:49:43;;;;;;;8.55;3.30;;;22.80;96.70;;;;;;5015550;28;20052;-84
2022/06/07 00:52:12;;;;;;;9.48;3.80;;;22.90;96.70;;;;;;5024109;28;20053;-83
2022/06/07 00:54:40;;;;;;;8.55;3.92;;;23.00;96.70;;;;;;5027445;28;20044;-84
2022/06/07 00:57:25;;;;;;;6.93;3.40;;;22.80;96.70;;;;;;5006532;28;20073;-84
2022/06/07 00:59:53;;;;;;;9.02;4.05;;;22.80;96.70;;;;;;5033705;28;20053;-84
2022/06/07 01:02:23;;;;;;;5.90;3.25;;;22.90;96.70;;;;;;5024888;28;20048;-84
2022/06/07 01:04:52;;;;;;;9.82;3.70;;;22.80;96.70;;;;;;5025865;28;20100;-84
2022/06/07 01:13:01;;;;;;;7.00;3.60;;;22.80;96.70;;;;;;5040099;28;20471;-83
2022/06/07 01:15:31;;;;;;;9.57;3.80;;;22.60;96.70;;;;;;5006706;28;20050;-84
2022/06/07 01:18:04;;;;;;;7.97;3.60;;;22.50;96.70;;;;;;5027281;28;20046;-84
2022/06/07 01:20:37;;;;;;;5.93;3.67;;;22.50;96.70;;;;;;5024434;28;20045;-84
2022/06/07 01:23:07;;;;;;;7.40;3.88;;;22.50;96.70;;;;;;5028441;28;20047;-84
2022/06/07 01:25:36;;;;;;;6.13;3.50;;;22.40;96.70;;;;;;5020057;28;20395;-84
2022/06/07 01:28:05;;;;;;;9.00;3.40;;;22.30;96.70;;;;;;5015303;28;20525;-83
2022/06/07 01:30:33;;;;;;;6.07;3.15;;;22.30;96.70;;;;;;5009686;28;20280;-83
2022/06/07 01:33:01;;;;;;;8.40;3.85;;;22.40;96.70;;;;;;5009185;28;20049;-82
2022/06/07 01:35:29;;;;;;;8.27;3.88;;;22.50;96.70;;;;;;5022927;28;20052;-83
2022/06/07 01:37:57;;;;;;;8.05;3.70;;;22.40;96.70;;;;;;5025381;28;20136;-84
2022/06/07 01:43:13;;;;;;;6.00;3.67;;;22.40;96.70;;;;;;5042629;28;20410;-84
2022/06/07 01:45:41;;;;;;;8.23;3.30;;;22.30;96.70;;;;;;5025218;28;20069;-84
2022/06/07 01:48:10;;;;;;;6.60;3.67;;;22.40;96.70;;;;;;5027696;28;20053;-83
2022/06/07 01:50:38;;;;;;;6.72;3.75;;;22.40;96.70;;;;;;5008276;28;20116;-83
2022/06/07 01:53:06;;;;;;;7.07;3.20;;;22.30;96.70;;;;;;5005341;28;20050;-84
2022/06/07 01:55:35;;;;;;;5.65;3.13;;;22.30;96.70;;;;;;5041266;28;20037;-84
2022/06/07 01:58:08;;;;;;;7.50;3.35;;;22.30;96.70;;;;;;5023324;28;20136;-83
2022/06/07 02:00:36;;;;;;;6.97;3.60;;;22.40;96.70;;;;;;5024414;28;20107;-84
2022/06/07 02:03:05;;;;;;;9.20;3.63;;;22.40;96.70;;;;;;5028886;28;20136;-84
2022/06/07 02:05:33;;;;;;;7.90;4.28;;;22.20;96.70;;;;;;5026995;28;20052;-82
2022/06/07 02:08:02;;;;;;;7.93;4.22;;;22.20;96.70;;;;;;5021035;28;20038;-84
2022/06/07 02:10:35;;;;;;;7.47;3.25;;;22.20;96.70;;;;;;5028742;28;20057;-82
2022/06/07 02:13:13;;;;;;;6.22;3.38;;;22.10;96.70;;;;;;5015129;28;20084;-83
2022/06/07 02:15:41;;;;;;;6.43;3.67;;;22.10;96.70;;;;;;5024593;28;20050;-83
2022/06/07 02:18:10;;;;;;;8.10;3.38;;;22.20;96.70;;;;;;5010284;28;20052;-83
2022/06/07 02:21:00;;;;;;;9.20;4.07;;;22.30;96.70;;;;;;5023795;28;20419;-83
2022/06/07 02:23:30;;;;;;;8.82;3.83;;;22.40;96.70;;;;;;5006930;28;20509;-84
2022/06/07 02:26:01;;;;;;;8.23;3.67;;;22.20;96.70;;;;;;5030757;28;20061;-84
2022/06/07 02:28:34;;;;;;;6.63;4.22;;;22.20;96.70;;;;;;5007616;28;20054;-82
2022/06/07 02:31:04;;;;;;;9.15;4.28;;;22.20;96.70;;;;;;5019122;28;20055;-83
2022/06/07 02:33:34;;;;;;;9.45;4.07;;;22.30;96.70;;;;;;5023883;28;20968;-83
2022/06/07 02:36:04;;;;;;;7.75;4.00;;;22.30;96.70;;;;;;5011936;28;20052;-84
2022/06/07 02:38:33;;;;;;;10.02;4.10;;;22.30;96.70;;;;;;5007235;28;20041;-83
2022/06/07 02:41:04;;;;;;;7.65;4.15;;;22.20;96.70;;;;;;5010229;28;20507;-83
2022/06/07 02:43:32;;;;;;;9.52;4.88;;;22.20;96.70;;;;;;5024576;28;20499;-84
2022/06/07 02:46:00;;;;;;;9.38;4.57;;;22.20;96.70;;;;;;5022959;28;20446;-84
2022/06/07 02:48:28;;;;;;;7.75;5.20;;;22.10;96.70;;;;;;5027110;28;20045;-84
2022/06/07 02:50:56;;;;;;;7.05;4.38;;;22.10;96.70;;;;;;5028992;28;20095;-84
2022/06/07 02:53:24;;;;;;;6.97;3.47;;;22.10;96.70;;;;;;5026760;28;20049;-82
2022/06/07 02:55:52;;;;;;;7.50;3.45;;;22.10;96.70;;;;;;5027752;28;20046;-84
2022/06/07 02:58:26;;;;;;;13.05;4.25;;;21.90;96.70;;;;;;5047132;28;20064;-83
2022/06/07 03:01:00;;;;;;;11.70;4.00;;;21.80;96.70;;;;;;5034526;28;20434;-83
2022/06/07 03:03:34;;;;;;;10.77;4.38;;;21.80;96.70;;;;;;5031643;28;20104;-84
2022/06/07 03:06:04;;;;;;;7.35;3.83;;;21.70;96.70;;;;;;5027587;28;20124;-82
2022/06/07 03:08:32;;;;;;;7.28;3.10;;;21.70;96.70;;;;;;5028787;28;20053;-83
2022/06/07 03:11:02;;;;;;;7.53;3.17;;;21.60;96.70;;;;;;5029400;28;20184;-84
2022/06/07 03:13:34;;;;;;;8.02;3.17;;;21.70;96.70;;;;;;5028546;28;20050;-84
2022/06/07 03:16:05;;;;;;;6.72;3.08;;;21.60;96.70;;;;;;5026385;28;20069;-84
2022/06/07 03:18:34;;;;;;;6.53;3.17;;;21.50;96.70;;;;;;5027114;28;20489;-84
2022/06/07 03:21:02;;;;;;;5.88;3.13;;;21.50;96.70;;;;;;5026159;28;20072;-84
2022/06/07 03:23:31;;;;;;;7.20;3.25;;;21.50;96.70;;;;;;5017031;28;20046;-83
2022/06/07 03:26:07;;;;;;;5.10;3.17;;;21.60;96.70;;;;;;5006597;28;20041;-84
2022/06/07 03:28:42;;;;;;;5.85;2.60;;;21.70;96.70;;;;;;5033515;28;20053;-84
2022/06/07 03:31:15;;;;;;;7.22;3.35;;;21.70;96.70;;;;;;5002696;28;20045;-84
2022/06/07 03:33:47;;;;;;;5.78;2.92;;;21.70;96.70;;;;;;5043923;28;20048;-84
2022/06/07 03:36:20;;;;;;;6.35;2.78;;;21.60;96.70;;;;;;5028343;28;20045;-84
2022/06/07 03:38:49;;;;;;;6.00;3.05;;;21.60;96.70;;;;;;5012072;28;20057;-84
2022/06/07 03:41:21;;;;;;;8.27;2.80;;;21.50;96.70;;;;;;5009056;28;20045;-84
2022/06/07 03:43:55;;;;;;;7.60;3.22;;;21.50;96.70;;;;;;5034282;28;20522;-83
2022/06/07 03:46:24;;;;;;;7.50;3.05;;;21.50;96.70;;;;;;5040281;28;20071;-84
2022/06/07 03:48:58;;;;;;;7.70;3.33;;;21.60;96.70;;;;;;5010384;28;20068;-84
2022/06/07 03:51:30;;;;;;;6.25;2.72;;;21.60;96.70;;;;;;5026084;28;20056;-84
2022/06/07 03:53:58;;;;;;;6.88;2.80;;;21.70;96.70;;;;;;5028865;28;20049;-85
2022/06/07 03:56:28;;;;;;;9.13;3.25;;;21.70;96.70;;;;;;5021293;28;20049;-84
2022/06/07 03:59:01;;;;;;;6.25;3.22;;;21.80;96.70;;;;;;5025815;28;20053;-84
2022/06/07 04:01:30;;;;;;;10.45;3.08;;;21.80;96.70;;;;;;5023367;28;20453;-84
2022/06/07 04:04:02;;;;;;;9.15;2.90;;;21.90;96.70;;;;;;5028697;28;20049;-84
2022/06/07 04:06:32;;;;;;;6.30;3.03;;;21.70;96.70;;;;;;5028091;28;20446;-84
2022/06/07 04:09:08;;;;;;;9.85;2.75;;;21.70;96.70;;;;;;5010141;28;20053;-83
2022/06/07 04:11:41;;;;;;;6.10;2.80;;;21.60;96.70;;;;;;5025999;28;20617;-83
2022/06/07 04:14:14;;;;;;;6.60;3.08;;;21.60;96.70;;;;;;5043944;28;20423;-84
2022/06/07 04:16:43;;;;;;;6.50;2.67;;;21.60;96.70;;;;;;5024515;28;20053;-84
2022/06/07 04:19:18;;;;;;;8.18;3.38;;;21.70;96.70;;;;;;5007847;28;20061;-84
2022/06/07 04:21:46;;;;;;;5.78;2.80;;;21.60;96.70;;;;;;5024486;28;20060;-84
2022/06/07 04:24:25;;;;;;;8.95;3.22;;;21.60;96.70;;;;;;5021814;28;20531;-84
2022/06/07 04:26:54;;;;;;;8.57;3.22;;;21.50;96.70;;;;;;5029320;28;20057;-84
2022/06/07 04:29:24;;;;;;;5.85;2.80;;;21.50;96.70;;;;;;5019316;28;20050;-83
2022/06/07 04:31:54;;;;;;;5.10;2.50;;;21.50;96.70;;;;;;5024356;28;20052;-84
2022/06/07 04:34:23;;;;;;;9.13;3.15;;;21.60;96.70;;;;;;5008225;28;20049;-82
2022/06/07 04:36:51;;;;;;;8.35;2.70;;;21.60;96.70;;;;;;5025928;28;20052;-84
2022/06/07 04:39:25;;;;;;;7.55;2.95;;;21.70;96.70;;;;;;5025823;28;20455;-84
2022/06/07 04:42:07;;;;;;;9.10;3.67;;;21.70;96.70;;;;;;5029404;28;20073;-83
2022/06/07 04:44:51;;;;;;;8.75;3.25;;;21.60;96.70;;;;;;5026817;28;20178;-84
2022/06/07 04:47:26;;;;;;;5.18;2.70;;;21.70;96.70;;;;;;5005626;28;20778;-85
2022/06/07 04:49:54;;;;;;;5.53;2.70;;;21.70;96.70;;;;;;5027079;28;20042;-85
2022/06/07 04:52:22;;;;;;;4.78;2.78;;;21.70;96.70;;;;;;5007359;28;20503;-85
2022/06/07 04:54:54;;;;;;;6.90;2.92;;;21.50;96.70;;;;;;5042227;28;20073;-84
2022/06/07 04:57:23;;;;;;;6.07;2.58;;;21.40;96.70;;;;;;5026041;28;20053;-84
2022/06/07 04:59:53;;;;;;;5.45;2.40;;;21.50;96.70;;;;;;5004323;28;20132;-84
2022/06/07 05:02:22;;;;;;;6.40;2.80;;;21.60;96.70;;;;;;5010594;28;20059;-84
2022/06/07 05:04:51;;;;;;;5.95;2.70;;;21.60;96.70;;;;;;5023618;28;20564;-84
2022/06/07 05:07:25;;;;;;;5.22;2.60;;;21.50;96.70;;;;;;5010628;28;20045;-84
2022/06/07 05:10:10;;;;;;;7.80;2.75;;;21.50;96.70;;;;;;5028762;28;20049;-84
2022/06/07 05:12:43;;;;;;;6.00;2.58;;;21.60;96.70;;;;;;5026215;28;20089;-84
2022/06/07 05:15:19;;;;;;;6.97;2.97;;;21.70;96.70;;;;;;5025234;28;20103;-85
2022/06/07 05:17:54;;;;;;;6.03;2.75;;;21.70;96.70;;;;;;5019791;28;20049;-84
2022/06/07 05:20:23;;;;;;;6.75;2.50;;;21.70;96.70;;;;;;5027190;28;20041;-84
2022/06/07 05:23:03;;;;;;;8.25;3.08;;;22.00;96.70;;;;;;5025731;28;20049;-84
2022/06/07 05:25:33;;;;;;;6.72;3.42;;;22.10;96.70;;;;;;5010098;28;20136;-83
2022/06/07 05:28:02;;;;;;;6.65;2.50;;;22.00;96.70;;;;;;5028605;28;20065;-84
2022/06/07 05:30:34;;;;;;;8.35;3.13;;;22.00;96.70;;;;;;5009756;28;20126;-83
2022/06/07 05:33:15;;;;;;;5.30;2.63;;;21.90;96.70;;;;;;5024542;28;20131;-84
2022/06/07 05:36:02;;;;;;;7.83;3.43;;;22.10;96.70;;;;;;5020509;28;20069;-84
2022/06/07 05:38:30;;;;;;;6.82;2.85;;;22.20;96.70;;;;;;5037299;28;20050;-85
2022/06/07 05:41:14;;;;;;;9.40;3.20;;;22.10;96.70;;;;;;5011083;28;20179;-83
2022/06/07 05:43:43;;;;;;;7.30;2.80;;;22.20;96.70;;;;;;5025376;28;20152;-82
2022/06/07 05:46:14;;;;;;;8.40;3.25;;;22.30;96.70;;;;;;5024644;28;20696;-84
2022/06/07 05:48:50;;;;;;;6.80;3.10;;;22.40;96.70;;;;;;5025290;28;20423;-84
2022/06/07 05:51:29;;;;;;;10.80;3.30;;;22.50;96.70;;;;;;5011475;28;20477;-85
2022/06/07 05:53:57;;;;;;;7.32;3.30;;;22.40;96.70;;;;;;5024944;28;20053;-83
2022/06/07 05:56:26;;;;;;;6.28;3.47;;;22.40;96.70;;;;;;5031034;28;20199;-83
2022/06/07 05:58:54;;;;;;;9.73;4.15;;;22.40;96.70;;;;;;5025627;28;20049;-84
2022/06/07 06:01:26;;;;;;;7.95;4.32;;;22.60;96.70;;;;;;5026214;28;20048;-84
2022/06/07 06:03:58;;;;;;;7.95;4.72;;;22.60;96.70;;;;;;5009989;28;20482;-85
2022/06/07 06:06:32;;;;;;;8.52;4.97;;;22.50;96.70;;;;;;5025373;28;20045;-85
2022/06/07 06:11:47;;;;;;;;;;;22.70;96.70;;;;;;5024789;28;20099;-85
2022/06/07 06:14:22;;;;;;;9.60;5.45;;;22.80;96.70;;;;;;5022980;28;19929;-84
2022/06/07 06:16:58;;;;;;;14.48;6.53;;;22.80;96.70;;;;;;5025585;28;20057;-85
2022/06/07 06:19:35;;;;;;;15.02;7.53;;;22.80;96.70;;;;;;5038789;28;20537;-85
2022/06/07 06:22:05;;;;;;;13.85;8.43;;;23.00;96.70;;;;;;5029094;28;20115;-85
2022/06/07 06:24:39;;;;;;;11.48;6.80;;;22.90;96.70;;;;;;5021240;28;20041;-85
2022/06/07 06:27:08;;;;;;;10.00;5.72;;;22.90;96.70;;;;;;5032051;28;20736;-85
2022/06/07 06:29:41;;;;;;;10.32;4.63;;;22.90;96.70;;;;;;5045921;28;20473;-85
2022/06/07 06:32:11;;;;;;;9.75;3.80;;;23.00;96.70;;;;;;5029241;28;20083;-84
2022/06/07 06:34:42;;;;;;;12.95;3.85;;;23.10;96.70;;;;;;5030294;28;20069;-82
2022/06/07 06:37:13;;;;;;;12.85;4.35;;;23.30;96.70;;;;;;5027085;28;20056;-80
2022/06/07 06:39:44;;;;;;;7.38;2.90;;;23.30;96.70;;;;;;5016081;28;20414;-81
2022/06/07 06:42:16;;;;;;;9.48;2.92;;;23.40;96.70;;;;;;5028451;28;20486;-79
2022/06/07 06:45:12;;;;;;;7.20;2.72;;;23.30;96.70;;;;;;5028241;28;20049;-79
2022/06/07 06:47:45;;;;;;;7.47;2.50;;;23.40;96.70;;;;;;5015313;28;20049;-82
2022/06/07 06:50:13;;;;;;;7.30;2.42;;;23.60;96.70;;;;;;5045732;28;20060;-82
2022/06/07 06:52:43;;;;;;;9.18;2.40;;;23.70;96.70;;;;;;5011059;28;20045;-82
2022/06/07 06:55:12;;;;;;;7.07;2.40;;;23.80;96.70;;;;;;5034342;28;20511;-81
2022/06/07 06:57:41;;;;;;;6.18;2.80;;;23.70;96.70;;;;;;5025265;28;20053;-80
2022/06/07 07:00:11;;;;;;;8.68;3.15;;;23.90;96.70;;;;;;5027830;28;20048;-81
2022/06/07 07:02:43;;;;;;;9.65;3.35;;;24.00;96.70;;;;;;5027263;28;20041;-81
2022/06/07 07:05:17;;;;;;;9.15;3.72;;;24.10;96.70;;;;;;5032376;28;20148;-83
2022/06/07 07:07:54;;;;;;;7.13;3.10;;;24.10;96.70;;;;;;5026411;28;20045;-83
2022/06/07 07:10:25;;;;;;;7.07;2.80;;;24.20;96.70;;;;;;5032396;28;20069;-84
2022/06/07 07:12:53;;;;;;;6.43;2.58;;;24.30;96.70;;;;;;5027934;28;20076;-85
2022/06/07 07:15:31;;;;;;;6.82;2.85;;;24.40;96.70;;;;;;5026243;28;20057;-83
2022/06/07 07:18:07;;;;;;;7.18;2.45;;;24.60;96.70;;;;;;5025424;28;20060;-83
2022/06/07 07:20:43;;;;;;;8.50;2.35;;;24.70;96.70;;;;;;5015986;28;20057;-84
2022/06/07 07:23:12;;;;;;;5.68;2.38;;;24.90;96.70;;;;;;5029248;28;20045;-84
2022/06/07 07:25:40;;;;;;;7.32;2.15;;;25.00;96.70;;;;;;5010992;28;20084;-82
2022/06/07 07:28:09;;;;;;;13.23;2.85;;;25.20;96.70;;;;;;5023796;28;20140;-84
2022/06/07 07:30:37;;;;;;;5.63;2.80;;;25.20;96.70;;;;;;5026182;28;20073;-84
2022/06/07 07:33:05;;;;;;;7.47;2.63;;;25.30;96.70;;;;;;5027393;28;20049;-83
2022/06/07 07:35:34;;;;;;;5.95;2.33;;;25.40;96.70;;;;;;5009806;28;20057;-83
2022/06/07 07:38:06;;;;;;;7.03;2.60;;;25.50;96.70;;;;;;5034903;28;20127;-82
2022/06/07 07:40:40;;;;;;;7.90;2.35;;;25.60;96.70;;;;;;5023560;28;20144;-81
2022/06/07 07:43:13;;;;;;;6.07;2.45;;;25.30;96.70;;;;;;5017206;28;20088;-82
2022/06/07 07:45:41;;;;;;;8.80;2.55;;;25.30;96.70;;;;;;5024446;28;20608;-82
2022/06/07 07:48:13;;;;;;;5.25;2.22;;;25.30;96.70;;;;;;5034256;28;20787;-82
2022/06/07 07:50:45;;;;;;;7.78;2.33;;;25.10;96.70;;;;;;5008448;28;20045;-82
2022/06/07 07:53:18;;;;;;;7.45;2.42;;;25.00;96.70;;;;;;5026833;28;20049;-81
2022/06/07 07:55:47;;;;;;;8.45;2.80;;;25.00;96.70;;;;;;5025407;28;20071;-81
2022/06/07 07:58:16;;;;;;;8.48;2.88;;;25.00;96.70;;;;;;5011810;28;20056;-81
2022/06/07 08:00:49;;;;;;;7.80;2.63;;;25.00;96.70;;;;;;5026910;28;20037;-81
2022/06/07 08:03:19;;;;;;;7.70;2.38;;;25.00;96.70;;;;;;5008664;28;20053;-82
2022/06/07 08:06:01;;;;;;;6.97;2.70;;;25.10;96.70;;;;;;5011193;28;20053;-82
2022/06/07 08:08:31;;;;;;;9.95;3.90;;;25.30;96.70;;;;;;5028673;28;20384;-82
2022/06/07 08:10:59;;;;;;;7.65;2.65;;;25.40;96.70;;;;;;5027669;28;20092;-82
2022/06/07 08:13:27;;;;;;;9.23;3.10;;;25.60;96.70;;;;;;5041937;28;20095;-82
2022/06/07 08:15:56;;;;;;;6.22;2.72;;;25.60;96.70;;;;;;5026570;28;20067;-82
2022/06/07 08:18:24;;;;;;;8.15;3.42;;;25.70;96.70;;;;;;5026362;28;20462;-84
2022/06/07 08:20:57;;;;;;;8.65;2.70;;;25.80;96.70;;;;;;5026683;28;20052;-83
2022/06/07 08:23:25;;;;;;;8.25;2.85;;;25.80;96.70;;;;;;5024441;28;20049;-84
2022/06/07 08:25:55;;;;;;;10.98;3.20;;;25.80;96.70;;;;;;5010848;28;20508;-82
2022/06/07 08:28:23;;;;;;;5.60;3.05;;;26.00;96.70;;;;;;5031371;28;20151;-82
2022/06/07 08:30:52;;;;;;;6.63;2.92;;;25.90;96.70;;;;;;5034553;28;20573;-85
2022/06/07 08:38:55;;;;;;;8.40;3.28;;;26.30;96.70;;;;;;5026010;28;20498;-82
2022/06/07 08:41:29;;;;;;;6.10;2.15;;;26.30;96.70;;;;;;5029325;28;20037;-79
2022/06/07 08:44:02;;;;;;;12.80;2.97;;;26.10;96.70;;;;;;5020047;28;20052;-79
2022/06/07 08:46:34;;;;;;;12.40;3.20;;;26.20;96.70;;;;;;5029203;28;20055;-82
2022/06/07 08:49:03;;;;;;;8.95;3.03;;;26.10;96.70;;;;;;5018624;28;20396;-82
2022/06/07 08:51:38;;;;;;;8.13;2.60;;;26.30;96.70;;;;;;5027263;28;20052;-82
2022/06/07 08:54:17;;;;;;;6.60;2.80;;;26.60;96.70;;;;;;5019263;28;20056;-82
2022/06/07 08:56:47;;;;;;;12.57;3.05;;;26.60;96.70;;;;;;5023714;28;20077;-80
2022/06/07 08:59:19;;;;;;;9.73;3.40;;;26.70;96.70;;;;;;5022966;28;20132;-77
2022/06/07 09:01:59;;;;;;;5.95;2.72;;;26.70;96.70;;;;;;5025732;28;20049;-81
2022/06/07 09:04:29;;;;;;;6.20;2.53;;;26.80;96.70;;;;;;5023835;28;20124;-80
2022/06/07 09:07:00;;;;;;;7.07;2.80;;;26.80;96.70;;;;;;5024108;28;20556;-78
2022/06/07 09:12:22;;;;;;;6.72;2.75;;;26.60;96.70;;;;;;5038732;28;20130;-80
2022/06/07 09:14:53;;;;;;;6.38;2.67;;;26.70;96.70;;;;;;5022944;28;20103;-80
2022/06/07 09:17:29;;;;;;;8.75;2.85;;;26.80;96.70;;;;;;5026944;28;20058;-77
2022/06/07 09:19:58;;;;;;;11.75;3.83;;;26.80;96.70;;;;;;5028040;28;20041;-77
2022/06/07 09:22:42;;;;;;;9.68;2.50;;;26.80;96.70;;;;;;5022489;28;20042;-85
2022/06/07 09:25:15;;;;;;;11.00;4.43;;;26.90;96.70;;;;;;5031958;28;20060;-83
2022/06/07 09:27:45;;;;;;;26.65;15.52;;;26.80;96.70;;;;;;5019468;28;20045;-81
2022/06/07 09:30:23;;;;;;;18.33;9.18;;;26.60;96.70;;;;;;5023877;28;20049;-82
2022/06/07 09:32:52;;;;;;;10.02;3.30;;;26.80;96.70;;;;;;5023418;28;20138;-82
2022/06/07 09:35:33;;;;;;;12.60;3.40;;;27.10;96.70;;;;;;5024610;28;20141;-82
2022/06/07 09:38:05;;;;;;;10.18;3.25;;;27.30;96.70;;;;;;5027654;28;20099;-82
2022/06/07 09:40:35;;;;;;;9.55;3.17;;;27.20;96.70;;;;;;5023177;28;20131;-81
2022/06/07 09:43:15;;;;;;;6.22;2.70;;;27.30;96.70;;;;;;5023913;28;20067;-79
2022/06/07 09:45:53;;;;;;;11.90;3.20;;;27.30;96.70;;;;;;5023877;28;20041;-80
2022/06/07 09:48:29;;;;;;;7.22;3.13;;;27.30;96.70;;;;;;5028496;28;20569;-81
2022/06/07 09:51:01;;;;;;;8.73;3.53;;;27.30;96.70;;;;;;5034958;28;20107;-81
2022/06/07 09:53:37;;;;;;;6.70;3.10;;;27.30;96.70;;;;;;5023603;28;20502;-81
2022/06/07 09:56:24;;;;;;;7.20;3.50;;;27.50;96.70;;;;;;5025729;28;20100;-82
2022/06/07 09:59:06;;;;;;;9.93;3.35;;;27.60;96.70;;;;;;5024652;28;20493;-81
2022/06/07 10:01:39;;;;;;;9.45;3.78;;;27.70;96.70;;;;;;5019363;28;20045;-80
2022/06/07 10:04:16;;;;;;;8.15;3.10;;;27.60;96.70;;;;;;5032496;28;20123;-80
2022/06/07 10:06:50;;;;;;;9.32;3.47;;;27.50;96.70;;;;;;5007616;28;20053;-80
2022/06/07 10:09:50;;;;;;;9.05;3.33;;;27.60;96.70;;;;;;5022838;28;20056;-81
2022/06/07 10:12:27;;;;;;;9.30;3.60;;;27.70;96.70;;;;;;5008071;28;20096;-80
2022/06/07 10:14:59;;;;;;;;;;;27.90;96.70;;;;;;5003947;28;20134;-81
2022/06/07 10:17:51;;;;;;;8.68;3.90;;;27.90;96.70;;;;;;5008064;28;19925;-80
2022/06/07 10:20:26;;;;;;;7.82;4.20;;;28.00;96.70;;;;;;5024115;28;20107;-81
2022/06/07 10:23:34;;;;;;;7.33;3.57;;;28.00;96.70;;;;;;5020154;28;20068;-81
2022/06/07 10:26:16;;;;;;;18.88;4.13;;;27.80;96.70;;;;;;5042399;28;20502;-80
2022/06/07 10:28:57;;;;;;;8.65;3.70;;;27.80;96.70;;;;;;5009479;28;20658;-81
2022/06/07 10:31:37;;;;;;;9.40;3.72;;;27.80;96.70;;;;;;5023077;28;20055;-80
2022/06/07 10:34:08;;;;;;;8.48;3.40;;;27.80;96.70;;;;;;5020462;28;20506;-81
2022/06/07 10:36:48;;;;;;;11.27;3.65;;;27.70;96.70;;;;;;5023439;28;20618;-81
2022/06/07 10:39:32;;;;;;;10.95;3.90;;;27.70;96.70;;;;;;5004196;28;20514;-81
2022/06/07 10:42:26;;;;;;;9.85;4.18;;;28.00;96.70;;;;;;5027009;28;20049;-80
2022/06/07 10:45:02;;;;;;;7.20;3.47;;;28.20;96.70;;;;;;4974231;28;20438;-81
2022/06/07 10:47:37;;;;;;;8.05;3.95;;;28.40;96.70;;;;;;4969790;28;20074;-80
2022/06/07 10:50:14;;;;;;;11.75;3.85;;;28.80;96.70;;;;;;4985101;28;20062;-82
2022/06/07 10:52:52;;;;;;;9.07;3.13;;;28.80;96.70;;;;;;4991938;28;20145;-82
2022/06/07 10:55:28;;;;;;;7.47;2.97;;;28.60;96.70;;;;;;4988768;28;20062;-83
2022/06/07 10:58:28;;;;;;;9.38;3.47;;;28.80;96.70;;;;;;4972659;28;20054;-80
2022/06/07 11:01:02;;;;;;;10.75;3.67;;;28.50;96.70;;;;;;4946162;28;20145;-82
2022/06/07 11:03:51;;;;;;;11.10;3.90;;;28.70;96.70;;;;;;5003530;28;20072;-81
2022/06/07 11:09:23;;;;;;;6.32;2.83;;;29.10;96.70;;;;;;5032148;28;20045;-82
2022/06/07 11:11:58;;;;;;;7.72;3.42;;;29.30;96.70;;;;;;5028777;28;20127;-81
2022/06/07 11:14:51;;;;;;;11.25;3.63;;;29.50;96.70;;;;;;5029270;28;20041;-82
2022/06/07 11:17:28;;;;;;;7.22;3.40;;;29.60;96.70;;;;;;5021729;28;20438;-82
2022/06/07 11:20:00;;;;;;;7.97;3.22;;;29.50;96.70;;;;;;5029992;28;20140;-82
2022/06/07 11:22:36;;;;;;;10.75;3.45;;;29.50;96.70;;;;;;5026151;28;20144;-81
2022/06/07 11:25:21;;;;;;;6.05;2.88;;;29.30;96.70;;;;;;5029911;28;20045;-81
2022/06/07 11:27:54;;;;;;;7.93;3.05;;;28.80;96.70;;;;;;5013065;28;20079;-81
2022/06/07 11:30:40;;;;;;;7.65;3.42;;;29.00;96.70;;;;;;5032339;28;20045;-82
2022/06/07 11:33:30;;;;;;;10.73;3.28;;;29.20;96.70;;;;;;5027008;28;20063;-81
2022/06/07 11:36:28;;;;;;;7.65;3.20;;;28.90;96.70;;;;;;5025873;28;20041;-82
2022/06/07 11:39:04;;;;;;;9.15;2.85;;;28.80;96.70;;;;;;5026857;28;20084;-79
2022/06/07 11:41:41;;;;;;;7.68;2.97;;;28.70;96.70;;;;;;5026485;28;20130;-81
2022/06/07 11:44:49;;;;;;;7.28;2.78;;;28.80;96.70;;;;;;5026592;28;20080;-83
2022/06/07 11:47:25;;;;;;;7.68;2.83;;;29.00;96.70;;;;;;5027441;28;20491;-81
2022/06/07 11:50:10;;;;;;;6.57;2.75;;;29.20;96.70;;;;;;5040924;28;20049;-82
2022/06/07 11:52:59;;;;;;;8.18;3.40;;;29.20;96.70;;;;;;5027619;28;20050;-82
2022/06/07 11:55:43;;;;;;;7.60;2.88;;;29.50;96.70;;;;;;5025157;28;20046;-80
2022/06/07 11:58:11;;;;;;;9.05;3.15;;;29.40;96.70;;;;;;5026136;28;20061;-79
2022/06/07 12:00:49;;;;;;;10.10;3.45;;;29.40;96.70;;;;;;5024373;28;20041;-81
2022/06/07 12:03:30;;;;;;;4.72;2.33;;;29.40;96.70;;;;;;5031256;28;20063;-80
2022/06/07 12:06:32;;;;;;;4.20;2.45;;;29.60;96.70;;;;;;5006923;28;20073;-80
2022/06/07 12:09:17;;;;;;;7.97;2.35;;;29.60;96.70;;;;;;4980728;28;20045;-81
2022/06/07 12:12:24;;;;;;;3.38;2.17;;;29.70;96.70;;;;;;5026824;28;20061;-80
2022/06/07 12:15:01;;;;;;;6.30;2.20;;;29.80;96.70;;;;;;5039974;28;20076;-80
2022/06/07 12:17:30;;;;;;;3.65;1.83;;;29.80;96.70;;;;;;5027867;28;20056;-80
2022/06/07 12:19:59;;;;;;;6.15;2.47;;;29.80;96.70;;;;;;5025242;28;20095;-81
2022/06/07 12:22:40;;;;;;;6.78;2.35;;;29.70;96.70;;;;;;5026822;28;20498;-81
2022/06/07 12:25:18;;;;;;;4.45;2.15;;;29.70;96.70;;;;;;5026440;28;20041;-81
2022/06/07 12:27:48;;;;;;;17.05;2.65;;;29.70;96.70;;;;;;5043218;28;20103;-79
2022/06/07 12:30:24;;;;;;;8.30;2.40;;;29.50;96.70;;;;;;5014618;28;20053;-81
2022/06/07 12:32:54;;;;;;;6.75;2.10;;;29.40;96.70;;;;;;5009597;28;20498;-81
2022/06/07 12:35:26;;;;;;;6.47;2.10;;;29.20;96.70;;;;;;5027345;28;20045;-80
2022/06/07 12:37:57;;;;;;;3.05;2.03;;;29.20;96.70;;;;;;5008032;28;20045;-79
2022/06/07 12:40:31;;;;;;;7.82;2.20;;;29.40;96.70;;;;;;5027799;28;20076;-82
2022/06/07 12:43:00;;;;;;;8.90;2.58;;;29.20;96.70;;;;;;5028918;28;20144;-81
2022/06/07 12:45:34;;;;;;;5.55;2.50;;;29.20;96.70;;;;;;5007907;28;20048;-81
2022/06/07 12:48:13;;;;;;;6.53;2.05;;;29.10;96.70;;;;;;5029120;28;20049;-81
2022/06/07 12:50:43;;;;;;;7.13;2.25;;;29.20;96.70;;;;;;5025258;28;20052;-81
2022/06/07 12:53:18;;;;;;;5.93;1.83;;;29.30;96.70;;;;;;5023806;28;20717;-81
2022/06/07 12:55:56;;;;;;;9.30;2.70;;;29.20;96.70;;;;;;5028532;28;20049;-81
2022/06/07 12:58:30;;;;;;;5.93;2.80;;;29.20;96.70;;;;;;5010850;28;20094;-80
2022/06/07 13:00:59;;;;;;;5.28;2.88;;;29.00;96.70;;;;;;5029706;28;20045;-80
2022/06/07 13:03:34;;;;;;;5.30;2.55;;;29.40;96.70;;;;;;5022300;28;20124;-81
2022/06/07 13:06:05;;;;;;;7.05;2.22;;;29.40;96.70;;;;;;5028679;28;20138;-84
2022/06/07 13:08:39;;;;;;;5.55;2.00;;;29.50;96.70;;;;;;5029337;28;20037;-84
2022/06/07 13:11:13;;;;;;;5.65;2.60;;;29.40;96.70;;;;;;5032192;28;20041;-83
2022/06/07 13:13:45;;;;;;;8.75;2.65;;;29.30;96.70;;;;;;5007803;28;20049;-84
2022/06/07 13:16:30;;;;;;;6.13;1.98;;;29.40;96.70;;;;;;5024535;28;20053;-82
2022/06/07 13:19:02;;;;;;;4.93;1.98;;;29.50;96.70;;;;;;5021824;28;20111;-85
2022/06/07 13:21:33;;;;;;;5.75;2.20;;;29.80;96.70;;;;;;5023815;28;20525;-84
2022/06/07 13:24:02;;;;;;;4.05;1.40;;;30.00;96.70;;;;;;5025862;28;20054;-84
2022/06/07 13:26:40;;;;;;;8.77;1.50;;;30.10;96.70;;;;;;5024376;28;20045;-83
2022/06/07 13:29:17;;;;;;;4.68;1.77;;;30.10;96.70;;;;;;5027547;28;20487;-83
2022/06/07 13:31:54;;;;;;;2.72;1.08;;;30.10;96.70;;;;;;5022382;28;20045;-83
2022/06/07 13:34:24;;;;;;;3.53;1.42;;;30.30;96.70;;;;;;5027614;28;20083;-82
2022/06/07 13:37:13;;;;;;;5.28;1.83;;;30.30;96.70;;;;;;5023311;28;20056;-84
2022/06/07 13:39:55;;;;;;;5.10;1.35;;;30.30;96.70;;;;;;5022294;28;20126;-82
2022/06/07 13:42:27;;;;;;;13.70;2.00;;;30.20;96.70;;;;;;5039468;28;20402;-84